createdAt,value
2023-02-15T00:02:08.054Z,26.17
2023-02-15T00:04:51.150Z,27.70
2023-02-15T00:07:21.425Z,28.53
2023-02-15T00:09:49.743Z,30.80
2023-02-15T00:12:18.683Z,26.67
2023-02-15T00:14:46.681Z,29.37
2023-02-15T00:17:14.704Z,33.33
2023-02-15T00:19:42.709Z,28.13
2023-02-15T00:22:11.219Z,30.20
2023-02-15T00:24:40.626Z,35.17
2023-02-15T00:27:10.042Z,26.90
2023-02-15T00:29:38.034Z,28.40
2023-02-15T00:32:07.042Z,27.53
2023-02-15T00:34:35.282Z,27.13
2023-02-15T00:37:03.424Z,29.83
2023-02-15T00:39:31.442Z,31.33
2023-02-15T00:42:01.977Z,34.97
2023-02-15T00:44:30.040Z,33.77
2023-02-15T00:46:58.169Z,31.27
2023-02-15T00:49:26.179Z,33.60
2023-02-15T00:51:55.624Z,37.37
2023-02-15T00:54:23.649Z,37.23
2023-02-15T00:56:51.936Z,36.60
2023-02-15T00:59:21.400Z,39.13
2023-02-15T01:01:52.291Z,40.97
2023-02-15T01:04:21.176Z,41.17
2023-02-15T01:06:49.252Z,39.17
2023-02-15T01:09:17.245Z,37.47
2023-02-15T01:11:45.246Z,41.10
2023-02-15T01:14:14.122Z,33.83
2023-02-15T01:16:44.615Z,38.07
2023-02-15T01:19:12.652Z,30.43
2023-02-15T01:21:41.620Z,39.73
2023-02-15T01:24:14.127Z,38.97
2023-02-15T01:26:42.139Z,36.97
2023-02-15T01:29:10.306Z,32.20
2023-02-15T01:31:40.008Z,35.87
2023-02-15T01:34:09.919Z,31.77
2023-02-15T01:36:40.313Z,28.47
2023-02-15T01:39:11.354Z,28.83
2023-02-15T01:41:39.402Z,32.77
2023-02-15T01:44:37.197Z,26.50
2023-02-15T01:47:05.544Z,25.33
2023-02-15T01:49:35.351Z,27.03
2023-02-15T01:52:03.868Z,29.20
2023-02-15T01:54:34.860Z,25.53
2023-02-15T01:57:06.112Z,22.10
2023-02-15T01:59:36.103Z,23.23
2023-02-15T02:02:06.779Z,24.27
2023-02-15T02:04:41.798Z,22.30
2023-02-15T02:07:11.459Z,20.50
2023-02-15T02:09:40.031Z,19.60
2023-02-15T02:12:09.243Z,22.37
2023-02-15T02:14:37.637Z,22.70
2023-02-15T02:17:13.301Z,22.53
2023-02-15T02:20:21.807Z,25.13
2023-02-15T02:23:28.899Z,23.63
2023-02-15T02:26:32.544Z,20.70
2023-02-15T02:29:39.631Z,24.67
2023-02-15T02:32:33.672Z,24.50
2023-02-15T02:35:10.978Z,27.53
2023-02-15T02:37:50.615Z,23.00
2023-02-15T02:40:24.890Z,23.73
2023-02-15T02:43:01.515Z,21.87
2023-02-15T02:45:34.719Z,23.43
2023-02-15T02:48:07.719Z,21.03
2023-02-15T02:50:37.066Z,21.03
2023-02-15T02:53:05.144Z,23.90
2023-02-15T02:55:37.552Z,21.07
2023-02-15T02:58:11.030Z,18.27
2023-02-15T03:00:42.267Z,19.60
2023-02-15T03:03:15.908Z,22.27
2023-02-15T03:05:49.148Z,22.00
2023-02-15T03:08:22.810Z,17.90
2023-02-15T03:10:53.621Z,21.90
2023-02-15T03:13:22.308Z,22.07
2023-02-15T03:16:09.607Z,22.17
2023-02-15T03:18:43.158Z,18.50
2023-02-15T03:21:23.028Z,22.50
2023-02-15T03:23:56.602Z,29.93
2023-02-15T03:26:26.682Z,25.93
2023-02-15T03:28:58.890Z,23.20
2023-02-15T03:31:32.849Z,21.70
2023-02-15T03:34:04.474Z,19.70
2023-02-15T03:36:43.904Z,21.27
2023-02-15T03:39:19.274Z,21.60
2023-02-15T03:41:54.177Z,24.60
2023-02-15T03:44:28.801Z,18.87
2023-02-15T03:47:04.260Z,21.03
2023-02-15T03:49:41.240Z,22.37
2023-02-15T03:52:13.193Z,18.33
2023-02-15T03:54:46.727Z,21.03
2023-02-15T03:57:36.182Z,22.67
2023-02-15T04:00:24.455Z,20.27
2023-02-15T04:03:11.742Z,16.17
2023-02-15T04:05:40.141Z,20.00
2023-02-15T04:08:10.276Z,21.67
2023-02-15T04:10:57.077Z,24.03
2023-02-15T04:13:32.214Z,18.53
2023-02-15T04:16:06.662Z,20.60
2023-02-15T04:18:56.047Z,21.87
2023-02-15T04:21:43.565Z,20.03
2023-02-15T04:24:31.026Z,17.83
2023-02-15T04:26:59.161Z,18.00
2023-02-15T04:29:28.492Z,18.60
2023-02-15T04:31:59.240Z,23.53
2023-02-15T04:34:27.796Z,22.47
2023-02-15T04:36:55.808Z,20.17
2023-02-15T04:39:25.136Z,22.00
2023-02-15T04:41:53.135Z,18.13
2023-02-15T04:44:21.119Z,20.00
2023-02-15T04:46:49.123Z,19.83
2023-02-15T04:49:17.139Z,23.57
2023-02-15T04:51:45.131Z,19.57
2023-02-15T04:54:13.128Z,18.70
2023-02-15T04:56:43.294Z,18.00
2023-02-15T04:59:12.369Z,16.07
2023-02-15T05:01:40.403Z,18.13
2023-02-15T05:04:08.438Z,18.13
2023-02-15T05:06:36.793Z,18.47
2023-02-15T05:09:04.928Z,26.80
2023-02-15T05:11:32.944Z,16.77
2023-02-15T05:14:02.315Z,15.63
2023-02-15T05:16:30.548Z,21.03
2023-02-15T05:18:58.755Z,20.13
2023-02-15T05:21:26.776Z,17.00
2023-02-15T05:23:54.785Z,16.43
2023-02-15T05:26:43.282Z,14.53
2023-02-15T05:29:13.282Z,20.10
2023-02-15T05:31:41.549Z,19.27
2023-02-15T05:34:09.729Z,17.43
2023-02-15T05:36:37.718Z,22.23
2023-02-15T05:39:06.874Z,21.93
2023-02-15T05:41:34.906Z,19.80
2023-02-15T05:44:02.951Z,21.93
2023-02-15T05:46:32.378Z,20.33
2023-02-15T05:49:00.416Z,21.00
2023-02-15T05:51:28.434Z,19.47
2023-02-15T05:53:56.464Z,18.80
2023-02-15T05:56:24.519Z,21.07
2023-02-15T05:58:55.807Z,18.83
2023-02-15T06:01:23.938Z,21.73
2023-02-15T06:03:53.920Z,22.30
2023-02-15T06:06:22.116Z,21.17
2023-02-15T06:08:50.150Z,20.50
2023-02-15T06:11:18.302Z,19.30
2023-02-15T06:13:46.338Z,17.77
2023-02-15T06:16:16.999Z,21.00
2023-02-15T06:18:45.301Z,19.73
2023-02-15T06:21:14.887Z,17.17
2023-02-15T06:23:42.918Z,23.23
2023-02-15T06:26:11.118Z,23.20
2023-02-15T06:28:39.327Z,18.67
2023-02-15T06:31:07.524Z,19.37
2023-02-15T06:33:35.742Z,19.07
2023-02-15T06:36:04.833Z,17.83
2023-02-15T06:38:34.459Z,17.40
2023-02-15T06:41:02.546Z,20.40
2023-02-15T06:43:30.610Z,21.83
2023-02-15T06:45:58.829Z,17.53
2023-02-15T06:48:26.951Z,22.47
2023-02-15T06:50:54.956Z,22.77
2023-02-15T06:53:22.980Z,18.10
2023-02-15T06:55:53.405Z,19.30
2023-02-15T06:58:22.533Z,28.97
2023-02-15T07:00:51.195Z,15.23
2023-02-15T07:03:19.475Z,15.90
2023-02-15T07:05:49.717Z,16.70
2023-02-15T07:08:17.712Z,18.33
2023-02-15T07:10:46.102Z,17.17
2023-02-15T07:13:14.469Z,15.07
2023-02-15T07:15:42.596Z,14.20
2023-02-15T07:18:11.595Z,16.70
2023-02-15T07:20:42.464Z,17.60
2023-02-15T07:23:10.543Z,16.73
2023-02-15T07:25:38.568Z,15.37
2023-02-15T07:28:07.022Z,15.63
2023-02-15T07:30:36.881Z,14.97
2023-02-15T07:33:22.689Z,17.23
2023-02-15T07:35:51.237Z,15.00
2023-02-15T07:38:20.208Z,14.80
2023-02-15T07:40:48.215Z,19.30
2023-02-15T07:43:16.300Z,15.47
2023-02-15T07:45:45.975Z,16.00
2023-02-15T07:48:13.947Z,17.80
2023-02-15T07:50:42.140Z,24.67
2023-02-15T07:53:10.164Z,16.30
2023-02-15T07:55:38.268Z,15.23
2023-02-15T07:58:06.243Z,15.87
2023-02-15T08:00:54.308Z,16.77
2023-02-15T08:03:27.594Z,19.63
2023-02-15T08:05:59.929Z,17.73
2023-02-15T08:08:34.471Z,16.47
2023-02-15T08:11:22.137Z,17.80
2023-02-15T08:14:00.319Z,18.57
2023-02-15T08:16:31.911Z,19.80
2023-02-15T08:19:03.365Z,21.37
2023-02-15T08:21:32.832Z,22.20
2023-02-15T08:24:01.755Z,19.93
2023-02-15T08:26:31.076Z,17.33
2023-02-15T08:28:59.599Z,18.60
2023-02-15T08:31:28.612Z,20.97
2023-02-15T08:33:58.209Z,19.63
2023-02-15T08:36:29.658Z,21.40
2023-02-15T08:39:00.392Z,25.03
2023-02-15T08:41:31.199Z,21.67
2023-02-15T08:44:01.259Z,23.13
2023-02-15T08:46:30.941Z,21.40
2023-02-15T08:48:59.541Z,20.70
2023-02-15T08:51:31.006Z,23.30
2023-02-15T08:54:01.356Z,23.70
2023-02-15T08:56:32.749Z,22.33
2023-02-15T08:59:01.219Z,25.73
2023-02-15T09:01:31.237Z,24.40
2023-02-15T09:04:00.781Z,26.10
2023-02-15T09:06:30.812Z,23.03
2023-02-15T09:08:59.087Z,25.67
2023-02-15T09:11:29.325Z,26.90
2023-02-15T09:13:58.761Z,24.37
2023-02-15T09:16:29.070Z,22.07
2023-02-15T09:18:58.443Z,21.60
2023-02-15T09:21:28.013Z,22.37
2023-02-15T09:24:00.681Z,22.60
2023-02-15T09:26:31.237Z,22.17
2023-02-15T09:29:01.882Z,27.30
2023-02-15T09:31:32.288Z,22.90
2023-02-15T09:34:02.678Z,23.77
2023-02-15T09:36:34.109Z,24.00
2023-02-15T09:39:09.294Z,23.30
2023-02-15T09:42:12.488Z,23.07
2023-02-15T09:45:18.915Z,25.77
2023-02-15T09:48:15.372Z,24.17
2023-02-15T09:50:57.370Z,26.33
2023-02-15T09:53:47.340Z,26.43
2023-02-15T09:56:30.777Z,28.57
2023-02-15T09:59:08.659Z,28.17
2023-02-15T10:01:46.628Z,29.17
2023-02-15T10:04:33.960Z,28.17
2023-02-15T10:07:15.219Z,29.77
2023-02-15T10:09:56.429Z,31.93
2023-02-15T10:12:53.942Z,28.77
2023-02-15T10:15:32.912Z,34.70
2023-02-15T10:18:18.274Z,37.40
2023-02-15T10:20:56.816Z,33.53
2023-02-15T10:23:38.810Z,31.43
2023-02-15T10:26:14.948Z,33.80
2023-02-15T10:28:50.103Z,32.87
2023-02-15T10:31:25.774Z,36.80
2023-02-15T10:34:11.659Z,30.63
2023-02-15T10:36:53.296Z,30.60
2023-02-15T10:39:27.797Z,36.63
2023-02-15T10:42:02.925Z,31.80
2023-02-15T10:44:47.147Z,33.43
2023-02-15T10:47:37.291Z,35.67
2023-02-15T10:50:36.300Z,35.43
2023-02-15T10:53:17.458Z,41.17
2023-02-15T10:55:56.106Z,40.00
2023-02-15T10:58:34.482Z,32.60
2023-02-15T11:01:13.692Z,36.57
2023-02-15T11:03:53.635Z,35.03
2023-02-15T11:06:23.292Z,37.77
2023-02-15T11:08:55.840Z,36.17
2023-02-15T11:11:29.615Z,34.17
2023-02-15T11:14:03.095Z,35.53
2023-02-15T11:16:36.040Z,39.47
2023-02-15T11:19:10.214Z,39.20
2023-02-15T11:21:42.591Z,37.73
2023-02-15T11:24:13.636Z,37.10
2023-02-15T11:26:44.618Z,37.00
2023-02-15T11:29:17.184Z,38.33
2023-02-15T11:31:50.018Z,36.43
2023-02-15T11:34:24.415Z,38.27
2023-02-15T11:36:54.263Z,38.03
2023-02-15T11:39:24.144Z,39.87
2023-02-15T11:41:57.180Z,41.10
2023-02-15T11:44:29.981Z,39.93
2023-02-15T11:46:59.432Z,38.83
2023-02-15T11:49:32.500Z,39.90
2023-02-15T11:52:04.955Z,41.30
2023-02-15T11:54:36.518Z,41.50
2023-02-15T11:57:13.896Z,40.47
2023-02-15T11:59:46.019Z,41.43
2023-02-15T12:02:19.488Z,41.30
2023-02-15T12:04:54.581Z,41.97
2023-02-15T12:07:26.692Z,42.30
2023-02-15T12:10:01.437Z,42.33
2023-02-15T12:12:31.349Z,41.47
2023-02-15T12:15:01.047Z,43.37
2023-02-15T12:17:33.403Z,44.17
2023-02-15T12:20:04.376Z,45.17
2023-02-15T12:22:35.089Z,45.10
2023-02-15T12:25:06.376Z,46.60
2023-02-15T12:27:37.898Z,42.70
2023-02-15T12:30:09.503Z,43.70
2023-02-15T12:32:50.901Z,43.47
2023-02-15T12:35:28.720Z,45.33
2023-02-15T12:37:58.764Z,44.23
2023-02-15T12:40:30.932Z,43.63
2023-02-15T12:42:59.726Z,42.47
2023-02-15T12:45:29.970Z,42.97
2023-02-15T12:48:17.810Z,41.70
2023-02-15T12:50:47.395Z,41.93
2023-02-15T12:53:20.042Z,37.93
2023-02-15T12:55:53.795Z,37.63
2023-02-15T12:58:26.068Z,40.03
2023-02-15T13:01:22.237Z,43.47
2023-02-15T13:04:00.004Z,42.80
2023-02-15T13:06:29.774Z,42.53
2023-02-15T13:09:00.713Z,40.10
2023-02-15T13:11:34.949Z,39.10
2023-02-15T13:14:05.998Z,40.60
2023-02-15T13:16:36.837Z,43.37
2023-02-15T13:19:12.956Z,40.27
2023-02-15T13:21:45.094Z,33.80
2023-02-15T13:24:20.733Z,40.97
2023-02-15T13:26:49.652Z,38.87
2023-02-15T13:29:23.407Z,42.20
2023-02-15T13:31:53.284Z,41.90
2023-02-15T13:34:27.843Z,37.87
2023-02-15T13:37:03.432Z,37.97
2023-02-15T13:39:41.628Z,35.13
2023-02-15T13:42:22.401Z,38.50
2023-02-15T13:45:11.249Z,38.07
2023-02-15T13:47:47.794Z,34.50
2023-02-15T13:50:38.497Z,36.50
2023-02-15T13:53:30.403Z,33.70
2023-02-15T13:56:05.805Z,40.27
2023-02-15T13:59:10.970Z,38.83
2023-02-15T14:01:47.293Z,37.10
2023-02-15T14:04:30.486Z,36.30
2023-02-15T14:07:12.069Z,39.43
2023-02-15T14:09:49.506Z,35.50
2023-02-15T14:12:33.481Z,38.47
2023-02-15T14:15:17.256Z,35.50
2023-02-15T14:17:55.647Z,39.33
2023-02-15T14:20:34.606Z,34.73
2023-02-15T14:23:13.620Z,37.40
2023-02-15T14:25:46.906Z,36.47
2023-02-15T14:28:19.052Z,37.50
2023-02-15T14:30:50.407Z,34.90
2023-02-15T14:33:36.015Z,36.27
2023-02-15T14:36:08.653Z,35.53
2023-02-15T14:38:50.860Z,38.47
2023-02-15T14:41:22.629Z,36.03
2023-02-15T14:43:58.683Z,39.00
2023-02-15T14:46:32.438Z,36.60
2023-02-15T14:49:08.671Z,35.87
2023-02-15T14:51:57.673Z,39.17
2023-02-15T14:55:01.742Z,38.00
2023-02-15T14:57:35.401Z,37.80
2023-02-15T15:00:35.545Z,40.23
2023-02-15T15:03:03.645Z,39.93
2023-02-15T15:05:36.069Z,37.30
2023-02-15T15:08:06.758Z,40.03
2023-02-15T15:10:40.188Z,37.57
2023-02-15T15:13:54.053Z,38.93
2023-02-15T15:16:48.444Z,37.47
2023-02-15T15:20:09.408Z,40.30
2023-02-15T15:22:38.602Z,35.13
2023-02-15T15:25:12.344Z,40.30
2023-02-15T15:27:56.635Z,38.97
2023-02-15T15:30:50.869Z,40.00
2023-02-15T15:34:02.033Z,36.27
2023-02-15T15:37:07.196Z,38.43
2023-02-15T15:40:22.491Z,38.63
2023-02-15T15:43:17.707Z,35.80
2023-02-15T15:45:58.622Z,38.90
2023-02-15T15:48:34.387Z,38.30
2023-02-15T15:51:06.336Z,38.83
2023-02-15T15:53:43.211Z,40.97
2023-02-15T15:56:16.271Z,41.40
2023-02-15T15:58:53.578Z,43.07
2023-02-15T16:01:28.563Z,42.50
2023-02-15T16:03:59.229Z,46.37
2023-02-15T16:06:36.343Z,42.90
2023-02-15T16:09:17.589Z,45.57
2023-02-15T16:11:47.388Z,46.83
2023-02-15T16:14:20.959Z,46.30
2023-02-15T16:16:52.663Z,41.57
2023-02-15T16:19:24.852Z,44.33
2023-02-15T16:21:53.157Z,45.73
2023-02-15T16:24:34.784Z,42.97
2023-02-15T16:27:37.523Z,43.93
2023-02-15T16:30:31.901Z,41.93
2023-02-15T16:33:07.779Z,40.90
2023-02-15T16:35:37.550Z,41.27
2023-02-15T16:38:06.220Z,40.30
2023-02-15T16:40:54.686Z,42.27
2023-02-15T16:43:26.787Z,40.40
2023-02-15T16:46:05.638Z,39.37
2023-02-15T16:48:35.964Z,39.77
2023-02-15T16:51:04.646Z,40.23
2023-02-15T16:53:32.822Z,41.93
2023-02-15T16:56:03.090Z,44.93
2023-02-15T16:58:38.379Z,41.27
2023-02-15T17:01:10.765Z,39.37
2023-02-15T17:03:39.067Z,43.73
2023-02-15T17:06:22.544Z,44.83
2023-02-15T17:08:50.795Z,66.17
2023-02-15T17:11:20.758Z,59.10
2023-02-15T17:14:16.107Z,64.87
2023-02-15T17:16:50.329Z,68.63
2023-02-15T17:19:22.837Z,64.50
2023-02-15T17:21:53.885Z,69.90
2023-02-15T17:24:30.325Z,64.07
2023-02-15T17:27:02.405Z,75.63
2023-02-15T17:29:38.084Z,78.70
2023-02-15T17:32:15.574Z,80.27
2023-02-15T17:34:47.500Z,78.53
2023-02-15T17:37:26.034Z,78.63
2023-02-15T17:39:54.399Z,80.17
2023-02-15T17:42:51.056Z,66.27
2023-02-15T17:45:19.407Z,63.73
2023-02-15T17:47:50.260Z,57.53
2023-02-15T17:50:22.524Z,52.13
2023-02-15T17:52:51.012Z,48.60
2023-02-15T17:55:38.894Z,48.23
2023-02-15T17:58:09.673Z,48.50
2023-02-15T18:00:58.795Z,47.50
2023-02-15T18:03:50.651Z,45.80
2023-02-15T18:06:36.142Z,48.67
2023-02-15T18:09:21.675Z,44.43
2023-02-15T18:11:50.686Z,46.53
2023-02-15T18:14:18.686Z,46.47
2023-02-15T18:16:46.919Z,47.83
2023-02-15T18:19:18.984Z,44.73
2023-02-15T18:21:47.451Z,45.03
2023-02-15T18:24:20.718Z,44.57
2023-02-15T18:26:49.559Z,44.10
2023-02-15T18:29:17.707Z,47.10
2023-02-15T18:31:49.028Z,43.83
2023-02-15T18:34:24.693Z,46.10
2023-02-15T18:36:53.335Z,44.07
2023-02-15T18:39:32.961Z,47.97
2023-02-15T18:42:01.310Z,47.17
2023-02-15T18:44:29.339Z,45.50
2023-02-15T18:46:57.393Z,47.53
2023-02-15T18:49:26.773Z,42.43
2023-02-15T18:51:54.816Z,43.03
2023-02-15T18:54:25.711Z,46.70
2023-02-15T18:56:56.426Z,39.40
2023-02-15T18:59:28.088Z,36.87
2023-02-15T19:01:56.452Z,41.97
2023-02-15T19:04:26.154Z,44.00
2023-02-15T19:06:55.133Z,38.63
2023-02-15T19:09:26.123Z,42.77
2023-02-15T19:11:56.524Z,42.93
2023-02-15T19:14:27.329Z,43.13
2023-02-15T19:16:56.401Z,41.97
2023-02-15T19:19:26.116Z,39.00
2023-02-15T19:21:54.313Z,41.13
2023-02-15T19:24:25.505Z,40.47
2023-02-15T19:26:53.752Z,43.30
2023-02-15T19:29:26.991Z,42.17
2023-02-15T19:31:55.291Z,37.33
2023-02-15T19:34:23.494Z,38.23
2023-02-15T19:36:56.512Z,41.97
2023-02-15T19:39:27.472Z,38.87
2023-02-15T19:41:55.515Z,35.50
2023-02-15T19:44:23.537Z,39.50
2023-02-15T19:46:51.588Z,39.13
2023-02-15T19:49:19.587Z,38.83
2023-02-15T19:51:48.011Z,38.00
2023-02-15T19:54:23.744Z,41.07
2023-02-15T19:56:51.888Z,40.93
2023-02-15T19:59:24.816Z,39.83
2023-02-15T20:01:53.260Z,39.33
2023-02-15T20:04:21.428Z,36.43
2023-02-15T20:06:50.732Z,41.20
2023-02-15T20:09:25.964Z,39.10
2023-02-15T20:11:54.572Z,44.80
2023-02-15T20:14:24.088Z,44.40
2023-02-15T20:16:52.545Z,40.47
2023-02-15T20:19:20.548Z,40.67
2023-02-15T20:21:54.337Z,39.87
2023-02-15T20:24:32.223Z,43.60
2023-02-15T20:27:00.968Z,40.57
2023-02-15T20:29:28.959Z,40.57
2023-02-15T20:32:00.948Z,38.50
2023-02-15T20:34:29.084Z,35.57
2023-02-15T20:36:57.116Z,38.43
2023-02-15T20:39:26.482Z,37.47
2023-02-15T20:41:54.510Z,39.03
2023-02-15T20:44:25.201Z,38.33
2023-02-15T20:46:55.756Z,34.67
2023-02-15T20:49:25.041Z,37.33
2023-02-15T20:51:54.009Z,35.37
2023-02-15T20:54:24.173Z,40.67
2023-02-15T20:56:54.174Z,39.63
2023-02-15T20:59:25.765Z,36.10
2023-02-15T21:01:58.953Z,37.23
2023-02-15T21:04:31.495Z,36.27
2023-02-15T21:06:59.708Z,38.90
2023-02-15T21:09:28.068Z,37.47
2023-02-15T21:11:59.584Z,36.37
2023-02-15T21:14:29.321Z,34.23
2023-02-15T21:16:57.385Z,39.43
2023-02-15T21:19:26.023Z,38.27
2023-02-15T21:21:54.715Z,32.30
2023-02-15T21:24:25.305Z,38.07
2023-02-15T21:26:54.071Z,36.57
2023-02-15T21:29:25.759Z,38.73
2023-02-15T21:31:54.140Z,37.03
2023-02-15T21:34:22.364Z,38.90
2023-02-15T21:36:51.398Z,39.53
2023-02-15T21:39:22.045Z,37.53
2023-02-15T21:42:09.068Z,39.00
2023-02-15T21:44:56.495Z,30.07
2023-02-15T21:47:43.279Z,38.27
2023-02-15T21:50:31.051Z,34.97
2023-02-15T21:52:59.755Z,40.93
2023-02-15T21:55:28.385Z,38.77
2023-02-15T21:57:56.416Z,38.67
2023-02-15T22:00:27.682Z,37.03
2023-02-15T22:02:58.227Z,38.67
2023-02-15T22:05:29.107Z,38.37
2023-02-15T22:07:57.815Z,38.73
2023-02-15T22:10:28.670Z,35.90
2023-02-15T22:12:57.059Z,34.23
2023-02-15T22:15:30.021Z,29.33
2023-02-15T22:17:58.024Z,36.57
2023-02-15T22:20:26.219Z,42.93
2023-02-15T22:22:54.586Z,39.23
2023-02-15T22:25:24.911Z,36.80
2023-02-15T22:27:55.104Z,39.67
2023-02-15T22:30:27.678Z,37.90
2023-02-15T22:32:57.251Z,41.30
2023-02-15T22:35:27.029Z,37.10
2023-02-15T22:37:55.041Z,37.10
2023-02-15T22:40:28.645Z,37.50
2023-02-15T22:42:57.835Z,35.40
2023-02-15T22:45:28.994Z,42.40
2023-02-15T22:47:59.489Z,39.60
2023-02-15T22:50:29.094Z,39.27
2023-02-15T22:52:57.632Z,43.90
2023-02-15T22:55:28.899Z,43.37
2023-02-15T22:57:58.453Z,37.90
2023-02-15T23:00:39.552Z,38.43
2023-02-15T23:03:16.708Z,43.23
2023-02-15T23:05:44.996Z,42.60
2023-02-15T23:08:13.171Z,38.87
2023-02-15T23:10:42.349Z,43.63
2023-02-15T23:13:25.888Z,44.93
2023-02-15T23:15:58.624Z,38.33
2023-02-15T23:18:29.273Z,44.30
2023-02-15T23:20:59.428Z,41.03
2023-02-15T23:23:31.704Z,43.07
2023-02-15T23:25:59.939Z,42.40
2023-02-15T23:28:30.502Z,41.93
2023-02-15T23:31:01.128Z,37.70
2023-02-15T23:33:32.671Z,41.23
2023-02-15T23:36:00.985Z,38.20
2023-02-15T23:38:30.717Z,44.53
2023-02-15T23:41:18.024Z,41.27
2023-02-15T23:43:48.330Z,41.87
2023-02-15T23:46:34.973Z,40.27
2023-02-15T23:49:14.616Z,42.00
2023-02-15T23:51:43.983Z,42.83
2023-02-15T23:54:12.141Z,46.20
2023-02-15T23:56:42.005Z,38.77
2023-02-15T23:59:16.314Z,41.13
